createdAt,value
2022-07-27T00:03:58.439Z,15.30
2022-07-27T00:10:00.799Z,15.30
2022-07-27T00:16:02.980Z,15.30
2022-07-27T00:22:04.791Z,15.30
2022-07-27T00:28:06.584Z,15.20
2022-07-27T00:34:08.560Z,15.20
2022-07-27T00:40:11.520Z,15.20
2022-07-27T00:46:13.547Z,15.10
2022-07-27T00:52:16.589Z,15.10
2022-07-27T00:58:18.834Z,15.20
2022-07-27T01:04:20.615Z,15.10
2022-07-27T01:10:23.826Z,14.90
2022-07-27T01:16:25.834Z,14.70
2022-07-27T01:22:27.854Z,14.60
2022-07-27T01:28:29.811Z,14.50
2022-07-27T01:34:33.618Z,14.30
2022-07-27T01:40:39.839Z,14.20
2022-07-27T01:46:41.992Z,14.00
2022-07-27T01:52:43.945Z,13.90
2022-07-27T01:58:46.257Z,13.70
2022-07-27T02:04:48.035Z,13.60
2022-07-27T02:11:08.624Z,13.60
2022-07-27T02:17:10.946Z,13.40
2022-07-27T02:23:16.708Z,13.30
2022-07-27T02:29:18.524Z,13.10
2022-07-27T02:35:20.543Z,13.00
2022-07-27T02:41:22.547Z,12.90
2022-07-27T02:47:24.309Z,12.80
2022-07-27T02:53:26.186Z,12.70
2022-07-27T02:59:28.116Z,12.50
2022-07-27T03:05:30.047Z,12.40
2022-07-27T03:11:31.943Z,12.30
2022-07-27T03:17:33.759Z,12.30
2022-07-27T03:23:35.649Z,12.10
2022-07-27T03:29:37.465Z,12.10
2022-07-27T03:35:39.275Z,12.00
2022-07-27T03:41:41.027Z,11.90
2022-07-27T03:47:42.803Z,11.80
2022-07-27T03:53:44.905Z,12.00
2022-07-27T03:59:46.775Z,12.00
2022-07-27T04:05:48.649Z,12.10
2022-07-27T04:11:51.533Z,12.20
2022-07-27T04:17:56.894Z,12.30
2022-07-27T04:23:59.042Z,12.40
2022-07-27T04:30:00.843Z,12.50
2022-07-27T04:36:02.658Z,12.70
2022-07-27T04:42:04.549Z,12.80
2022-07-27T04:48:08.248Z,13.00
2022-07-27T04:54:10.080Z,13.30
2022-07-27T05:00:12.372Z,13.40
2022-07-27T05:06:14.196Z,13.70
2022-07-27T05:12:16.045Z,14.00
2022-07-27T05:18:18.933Z,14.10
2022-07-27T05:24:20.738Z,14.00
2022-07-27T05:30:24.491Z,14.20
2022-07-27T05:36:26.773Z,14.20
2022-07-27T05:42:28.627Z,14.60
2022-07-27T05:48:30.482Z,15.50
2022-07-27T05:54:32.303Z,16.00
2022-07-27T06:00:34.482Z,16.50
2022-07-27T06:06:54.586Z,16.90
2022-07-27T06:19:35.891Z,17.40
2022-07-27T06:32:15.798Z,17.80
2022-07-27T06:38:19.651Z,17.70
2022-07-27T06:44:24.407Z,17.70
2022-07-27T06:50:34.476Z,17.80
2022-07-27T06:56:37.384Z,18.20
2022-07-27T07:03:00.191Z,18.50
2022-07-27T07:09:15.301Z,18.40
2022-07-27T07:15:22.987Z,18.60
2022-07-27T07:24:59.342Z,18.90
2022-07-27T07:31:04.209Z,19.00
2022-07-27T07:37:13.032Z,19.40
2022-07-27T07:43:15.382Z,19.30
2022-07-27T07:49:38.110Z,19.50
2022-07-27T07:55:46.352Z,19.60
2022-07-27T08:01:48.683Z,19.50
2022-07-27T08:07:51.371Z,19.50
2022-07-27T08:13:53.283Z,19.40
2022-07-27T08:19:55.680Z,20.00
2022-07-27T08:26:04.130Z,20.30
2022-07-27T08:32:14.073Z,19.80
2022-07-27T08:44:29.983Z,19.50
2022-07-27T08:50:33.700Z,20.00
2022-07-27T08:56:37.819Z,20.70
2022-07-27T09:02:42.331Z,20.20
2022-07-27T09:08:58.973Z,19.80
2022-07-27T09:15:12.545Z,19.90
2022-07-27T09:21:22.859Z,20.70
2022-07-27T09:27:31.122Z,20.30
2022-07-27T09:33:50.852Z,21.00
2022-07-27T09:40:11.474Z,21.40
2022-07-27T09:46:13.514Z,21.60
2022-07-27T09:52:25.969Z,21.30
2022-07-27T09:58:52.080Z,20.10
2022-07-27T10:04:55.033Z,20.10
2022-07-27T10:10:58.043Z,19.70
2022-07-27T10:17:00.656Z,19.80
2022-07-27T10:23:02.492Z,21.20
2022-07-27T10:29:13.297Z,21.50
2022-07-27T10:35:35.112Z,21.50
2022-07-27T10:41:40.166Z,21.00
2022-07-27T10:47:48.377Z,21.00
2022-07-27T11:00:19.524Z,21.60
2022-07-27T11:06:33.004Z,21.80
2022-07-27T11:12:37.506Z,22.40
2022-07-27T11:18:42.434Z,22.20
2022-07-27T11:24:49.412Z,22.90
2022-07-27T11:30:51.354Z,22.90
2022-07-27T11:36:53.219Z,22.90
2022-07-27T11:42:54.997Z,22.90
2022-07-27T11:49:08.701Z,22.60
2022-07-27T11:55:13.568Z,22.20
2022-07-27T12:01:29.888Z,22.10
2022-07-27T12:07:33.239Z,23.40
2022-07-27T12:13:36.291Z,23.60
2022-07-27T12:19:38.450Z,22.70
2022-07-27T12:26:18.202Z,22.20
2022-07-27T12:32:21.180Z,22.40
2022-07-27T12:38:23.966Z,22.40
2022-07-27T12:44:33.543Z,22.10
2022-07-27T12:50:46.676Z,23.30
2022-07-27T12:56:49.839Z,23.00
2022-07-27T13:02:52.164Z,22.10
2022-07-27T13:08:54.464Z,21.50
2022-07-27T13:14:56.493Z,22.00
2022-07-27T13:20:58.372Z,21.90
2022-07-27T13:27:00.580Z,21.40
2022-07-27T13:33:02.403Z,21.80
2022-07-27T13:39:04.336Z,21.70
2022-07-27T13:45:10.536Z,22.20
2022-07-27T13:51:13.394Z,22.20
2022-07-27T13:57:15.223Z,21.60
2022-07-27T14:03:17.584Z,21.00
2022-07-27T14:09:22.017Z,21.10
2022-07-27T14:15:24.161Z,22.10
2022-07-27T14:21:32.865Z,22.50
2022-07-27T14:27:37.575Z,22.70
2022-07-27T14:33:40.541Z,22.30
2022-07-27T14:39:42.353Z,21.60
2022-07-27T14:45:46.224Z,21.50
2022-07-27T14:51:48.632Z,21.70
2022-07-27T14:57:53.368Z,22.80
2022-07-27T15:04:01.622Z,22.30
2022-07-27T15:10:24.245Z,21.90
2022-07-27T15:22:56.263Z,21.10
2022-07-27T15:29:06.138Z,21.40
2022-07-27T15:35:17.813Z,21.60
2022-07-27T15:41:30.832Z,21.50
2022-07-27T15:47:52.545Z,21.30
2022-07-27T15:54:02.955Z,21.20
2022-07-27T16:00:07.071Z,21.10
2022-07-27T16:06:20.325Z,21.10
2022-07-27T16:12:31.901Z,21.40
2022-07-27T16:18:39.394Z,21.30
2022-07-27T16:24:56.830Z,21.90
2022-07-27T16:31:12.407Z,21.70
2022-07-27T16:37:25.641Z,20.90
2022-07-27T16:43:39.266Z,21.00
2022-07-27T16:49:51.876Z,21.50
2022-07-27T16:56:07.209Z,21.10
2022-07-27T17:02:24.131Z,20.70
2022-07-27T17:08:40.329Z,20.60
2022-07-27T17:14:47.245Z,20.30
2022-07-27T17:21:06.071Z,20.50
2022-07-27T17:27:20.220Z,21.40
2022-07-27T17:33:39.249Z,21.90
2022-07-27T17:39:54.143Z,21.70
2022-07-27T17:46:08.545Z,21.50
2022-07-27T17:52:11.459Z,23.60
2022-07-27T17:58:19.682Z,25.10
2022-07-27T18:04:25.462Z,25.10
2022-07-27T18:10:36.724Z,25.20
2022-07-27T18:16:47.061Z,24.00
2022-07-27T18:22:59.083Z,23.20
2022-07-27T18:29:16.888Z,23.20
2022-07-27T18:35:29.416Z,22.30
2022-07-27T18:41:37.858Z,21.00
2022-07-27T18:47:51.956Z,19.80
2022-07-27T18:54:08.196Z,18.80
2022-07-27T19:00:19.094Z,18.20
2022-07-27T19:06:34.041Z,17.60
2022-07-27T19:12:42.250Z,17.20
2022-07-27T19:18:54.774Z,16.70
2022-07-27T19:25:15.430Z,16.30
2022-07-27T19:31:31.820Z,16.00
2022-07-27T19:37:42.761Z,15.60
2022-07-27T19:43:51.197Z,15.20
2022-07-27T19:50:07.888Z,14.80
2022-07-27T19:56:13.400Z,14.30
2022-07-27T20:02:17.320Z,14.00
2022-07-27T20:08:55.133Z,13.50
2022-07-27T20:15:11.583Z,13.30
2022-07-27T20:22:00.546Z,12.90
2022-07-27T20:28:24.149Z,12.90
2022-07-27T20:34:52.310Z,12.50
2022-07-27T20:40:59.859Z,12.20
2022-07-27T20:47:27.105Z,12.00
2022-07-27T20:53:34.469Z,11.80
2022-07-27T20:59:36.415Z,11.70
2022-07-27T21:05:38.297Z,11.60
2022-07-27T21:11:40.102Z,11.60
2022-07-27T21:17:42.363Z,11.50
2022-07-27T21:24:02.969Z,11.30
2022-07-27T21:30:06.825Z,11.60
2022-07-27T21:36:09.350Z,11.70
2022-07-27T21:42:11.709Z,11.50
2022-07-27T21:48:13.554Z,11.30
2022-07-27T21:54:16.485Z,11.10
2022-07-27T22:00:24.282Z,10.80
2022-07-27T22:06:26.159Z,10.80
2022-07-27T22:12:28.020Z,10.60
2022-07-27T22:18:30.316Z,10.50
2022-07-27T22:24:32.127Z,10.30
2022-07-27T22:30:34.102Z,10.20
2022-07-27T22:36:36.158Z,10.30
2022-07-27T22:42:38.861Z,10.50
2022-07-27T22:48:40.778Z,10.80
2022-07-27T22:54:43.031Z,10.70
2022-07-27T23:00:45.029Z,10.50
2022-07-27T23:06:47.098Z,10.40
2022-07-27T23:12:48.942Z,10.30
2022-07-27T23:18:50.885Z,10.20
2022-07-27T23:24:52.736Z,10.10
2022-07-27T23:30:54.597Z,10.10
2022-07-27T23:36:56.485Z,10.00
2022-07-27T23:42:58.467Z,9.90
2022-07-27T23:49:00.386Z,9.90
2022-07-27T23:55:02.891Z,9.80
